Time;durP1;ratioP1;P1;durP2;ratioP2;P2;SDS_P1;SDS_P2;PMS_P1;PMS_P2;Temp;Humidity;BMP_temperature;BMP_pressure;BME280_temperature;BME280_humidity;BME280_pressure;Samples;Min_cycle;Max_cycle;Signal;HPM_P1;HPM_P2
2021/12/28 00:01:17;;;;;;;133.78;55.83;;;;;;;-4.48;77.39;97490.85;1753170;80;21035;-58
2021/12/28 00:03:45;;;;;;;129.20;57.38;;;;;;;-4.40;77.27;97489.36;1750836;80;20980;-58
2021/12/28 00:06:13;;;;;;;130.45;56.15;;;;;;;-4.35;77.49;97484.81;1742794;81;22076;-58
2021/12/28 00:08:40;;;;;;;145.12;63.70;;;;;;;-4.28;77.37;97485.13;1751023;82;20991;-58
2021/12/28 00:11:07;;;;;;;124.80;55.58;;;;;;;-4.27;77.34;97485.97;1750027;81;21539;-58
2021/12/28 00:13:34;;;;;;;146.30;61.95;;;;;;;-4.29;77.00;97483.49;1750309;82;21075;-58
2021/12/28 00:18:32;;;;;;;125.30;53.60;;;;;;;-4.29;77.38;97480.84;1746335;81;20988;-58
2021/12/28 00:21:00;;;;;;;142.20;61.42;;;;;;;-4.35;76.84;97480.85;1743451;81;21012;-58
2021/12/28 00:23:35;;;;;;;133.22;52.90;;;;;;;-4.47;76.95;97478.44;1744343;81;21027;-58
2021/12/28 00:25:59;;;;;;;129.15;55.50;;;;;;;-4.48;76.92;97474.98;1743255;81;21060;-58
2021/12/28 00:28:26;;;;;;;148.57;59.98;;;;;;;-4.60;76.88;97470.78;1742595;81;21001;-58
2021/12/28 00:30:53;;;;;;;142.18;59.30;;;;;;;-4.68;76.99;97473.59;1739002;81;22040;-58
2021/12/28 00:33:22;;;;;;;132.18;56.48;;;;;;;-4.68;77.16;97466.98;1748652;81;21484;-58
2021/12/28 00:35:50;;;;;;;149.12;57.88;;;;;;;-4.70;77.13;97463.72;1735231;82;32480;-58
2021/12/28 00:38:22;;;;;;;148.28;63.90;;;;;;;-4.74;77.57;97465.11;1729887;81;21020;-58
2021/12/28 00:40:52;;;;;;;157.22;62.60;;;;;;;-4.67;77.31;97465.96;1735429;82;21013;-58
2021/12/28 00:43:19;;;;;;;174.32;69.72;;;;;;;-4.64;77.52;97458.95;1735347;82;21670;-57
2021/12/28 00:45:47;;;;;;;134.35;55.08;;;;;;;-4.61;77.60;97455.92;1735316;82;20993;-58
2021/12/28 00:48:14;;;;;;;119.28;53.90;;;;;;;-4.52;77.18;97459.22;1725371;82;20989;-58
2021/12/28 00:50:41;;;;;;;131.37;52.78;;;;;;;-4.51;77.16;97461.35;1720739;82;20990;-58
2021/12/28 00:53:08;;;;;;;140.43;60.33;;;;;;;-4.54;77.00;97456.75;1735535;82;20977;-57
2021/12/28 00:55:36;;;;;;;134.30;60.23;;;;;;;-4.62;77.31;97454.27;1735612;82;21416;-58
2021/12/28 00:58:03;;;;;;;130.10;52.83;;;;;;;-4.52;77.59;97457.89;1735417;82;20974;-57
2021/12/28 01:00:34;;;;;;;134.63;55.78;;;;;;;-4.43;77.52;97454.57;1735519;82;21041;-58
2021/12/28 01:03:02;;;;;;;162.80;61.70;;;;;;;-4.42;77.44;97453.55;1735502;82;21009;-57
2021/12/28 01:05:29;;;;;;;141.97;59.20;;;;;;;-4.40;77.30;97460.78;1735594;82;22116;-57
2021/12/28 01:07:56;;;;;;;138.45;55.70;;;;;;;-4.38;77.36;97448.16;1714632;82;21040;-57
2021/12/28 01:10:27;;;;;;;138.57;55.67;;;;;;;-4.41;78.09;97449.89;1735725;82;20985;-57
2021/12/28 01:12:55;;;;;;;135.95;57.43;;;;;;;-4.42;78.56;97439.82;1735354;82;20993;-57
2021/12/28 01:15:24;;;;;;;144.62;54.80;;;;;;;-4.37;78.37;97437.38;1735586;82;21437;-57
2021/12/28 01:17:51;;;;;;;121.30;51.55;;;;;;;-4.35;78.56;97440.66;1735858;82;21064;-57
2021/12/28 01:20:18;;;;;;;144.53;59.30;;;;;;;-4.26;77.91;97436.81;1735618;82;22005;-57
2021/12/28 01:22:45;;;;;;;138.80;58.23;;;;;;;-4.23;78.03;97442.72;1735513;82;21052;-57
2021/12/28 01:25:13;;;;;;;156.90;68.25;;;;;;;-4.18;77.61;97438.97;1735667;82;21460;-57
2021/12/28 01:27:40;;;;;;;133.50;55.65;;;;;;;-4.22;77.62;97437.22;1719377;82;21067;-57
2021/12/28 01:30:08;;;;;;;124.80;53.02;;;;;;;-4.27;77.22;97434.38;1739196;82;21005;-57
2021/12/28 01:32:35;;;;;;;142.35;58.68;;;;;;;-4.27;77.64;97437.84;1764512;80;22095;-57
2021/12/28 01:35:04;;;;;;;167.25;81.72;;;;;;;-4.27;77.39;97427.77;1745896;81;21498;-57
2021/12/28 01:37:31;;;;;;;;;;;;;;;-4.28;77.23;97426.91;1741288;82;21452;-57
2021/12/28 01:39:58;;;;;;;131.00;51.85;;;;;;;-4.31;77.19;97423.36;1734768;82;20372;-57
2021/12/28 01:42:25;;;;;;;118.13;50.17;;;;;;;-4.34;77.53;97422.45;1715486;83;21017;-57
2021/12/28 01:44:52;;;;;;;131.03;51.65;;;;;;;-4.31;77.98;97420.72;1715855;83;22012;-57
2021/12/28 01:47:19;;;;;;;126.20;51.28;;;;;;;-4.32;77.47;97420.41;1743285;82;21001;-57
2021/12/28 01:49:46;;;;;;;155.07;58.80;;;;;;;-4.30;77.43;97417.05;1729745;82;20971;-57
2021/12/28 01:52:13;;;;;;;118.75;51.60;;;;;;;-4.26;77.76;97422.27;1740988;82;20992;-57
2021/12/28 01:54:39;;;;;;;122.92;53.08;;;;;;;-4.25;77.27;97424.40;1751160;81;21003;-57
2021/12/28 01:57:06;;;;;;;168.80;73.02;;;;;;;-4.30;77.17;97417.05;1750994;81;21413;-57
2021/12/28 01:59:33;;;;;;;130.55;54.30;;;;;;;-4.39;77.39;97412.95;1751093;81;21059;-57
2021/12/28 02:02:00;;;;;;;132.03;55.88;;;;;;;-4.34;77.39;97422.45;1744737;82;21017;-57
2021/12/28 02:04:28;;;;;;;144.13;61.10;;;;;;;-4.39;77.17;97411.64;1744434;81;20997;-57
2021/12/28 02:06:57;;;;;;;122.77;46.67;;;;;;;-4.47;77.22;97414.97;1750514;80;20992;-57
2021/12/28 02:09:24;;;;;;;166.73;65.87;;;;;;;-4.54;77.32;97413.62;1776936;80;21420;-57
2021/12/28 02:11:53;;;;;;;157.65;62.73;;;;;;;-4.59;77.28;97410.27;1760798;80;21051;-57
2021/12/28 02:14:21;;;;;;;165.47;67.37;;;;;;;-4.69;77.41;97407.19;1751232;81;20983;-57
2021/12/28 02:16:48;;;;;;;164.00;65.87;;;;;;;-4.76;77.42;97402.37;1752928;80;21499;-57
2021/12/28 02:19:15;;;;;;;154.90;64.20;;;;;;;-4.79;77.43;97404.58;1751065;81;21062;-57
2021/12/28 02:21:42;;;;;;;162.55;66.57;;;;;;;-4.85;77.53;97405.69;1751130;80;21416;-57
2021/12/28 02:24:09;;;;;;;157.52;66.57;;;;;;;-4.92;77.49;97405.34;1738272;81;21004;-57
2021/12/28 02:26:36;;;;;;;162.30;65.80;;;;;;;-4.97;77.63;97404.60;1740243;82;21025;-57
2021/12/28 02:29:05;;;;;;;162.12;66.57;;;;;;;-4.99;78.23;97409.78;1748570;81;20968;-57
2021/12/28 02:31:32;;;;;;;162.82;68.75;;;;;;;-4.99;78.00;97411.92;1735936;82;20993;-57
2021/12/28 02:34:03;;;;;;;152.45;62.35;;;;;;;-5.04;78.19;97402.45;1735424;82;22078;-57
2021/12/28 02:36:30;;;;;;;175.20;69.17;;;;;;;-5.07;78.21;97409.94;1735670;82;20971;-58
2021/12/28 02:38:57;;;;;;;160.05;65.37;;;;;;;-5.07;78.33;97411.27;1735594;82;20992;-58
2021/12/28 02:41:24;;;;;;;173.43;68.70;;;;;;;-5.09;78.08;97404.05;1735458;82;20988;-62
2021/12/28 02:43:51;;;;;;;152.45;64.75;;;;;;;-5.13;78.04;97402.28;1735606;82;21047;-58
2021/12/28 02:46:18;;;;;;;177.57;69.92;;;;;;;-5.18;78.05;97402.88;1712961;81;21991;-58
2021/12/28 02:48:44;;;;;;;176.75;70.65;;;;;;;-5.21;78.42;97405.92;1733065;81;21542;-58
2021/12/28 02:51:14;;;;;;;200.93;81.50;;;;;;;-5.22;78.34;97400.30;1735778;81;21566;-58
2021/12/28 02:53:43;;;;;;;189.67;79.65;;;;;;;-5.34;78.11;97393.13;1731835;82;21020;-59
2021/12/28 02:56:10;;;;;;;183.27;76.50;;;;;;;-5.39;78.23;97397.16;1735518;82;27076;-58
2021/12/28 02:58:40;;;;;;;186.57;80.95;;;;;;;-5.44;78.12;97392.98;1735589;82;22108;-58
2021/12/28 03:01:14;;;;;;;181.45;76.30;;;;;;;-5.53;78.01;97386.72;1731206;82;21073;-58
2021/12/28 03:03:44;;;;;;;180.87;72.25;;;;;;;-5.59;78.18;97383.53;1739426;82;20985;-58
2021/12/28 03:06:15;;;;;;;187.15;77.75;;;;;;;-5.67;78.45;97382.66;1772601;80;21088;-58
2021/12/28 03:08:44;;;;;;;173.20;73.65;;;;;;;-5.72;78.80;97382.94;1721839;83;21012;-58
2021/12/28 03:11:11;;;;;;;168.60;69.35;;;;;;;-5.73;78.63;97380.78;1720774;83;21672;-58
2021/12/28 03:13:47;;;;;;;164.93;68.05;;;;;;;-5.76;79.28;97379.04;1735055;81;21052;-58
2021/12/28 03:16:14;;;;;;;159.65;65.75;;;;;;;-5.82;78.70;97381.93;1736537;82;21003;-58
2021/12/28 03:18:42;;;;;;;161.18;64.80;;;;;;;-5.89;79.03;97376.31;1734635;82;21054;-58
2021/12/28 03:21:10;;;;;;;197.05;79.30;;;;;;;-5.91;79.12;97382.30;1735107;81;21055;-58
2021/12/28 03:23:38;;;;;;;143.78;58.87;;;;;;;-5.88;79.17;97381.40;1741245;81;21327;-57
2021/12/28 03:26:05;;;;;;;146.47;62.62;;;;;;;-5.88;78.86;97386.67;1740863;81;21008;-58
2021/12/28 03:28:36;;;;;;;159.25;60.50;;;;;;;-5.92;78.73;97378.03;1741098;81;21008;-57
2021/12/28 03:31:04;;;;;;;163.12;66.65;;;;;;;-5.96;78.67;97377.61;1740806;81;20993;-58
2021/12/28 03:33:32;;;;;;;166.70;65.10;;;;;;;-6.03;79.84;97377.55;1741421;81;21043;-57
2021/12/28 03:35:59;;;;;;;224.58;87.55;;;;;;;-6.02;79.28;97374.41;1740974;81;21418;-57
2021/12/28 03:38:26;;;;;;;232.70;87.00;;;;;;;-6.08;78.94;97378.61;1740929;81;22097;-57
2021/12/28 03:40:53;;;;;;;276.35;100.80;;;;;;;-6.19;80.29;97378.31;1740877;81;21008;-58
2021/12/28 03:43:21;;;;;;;277.62;105.60;;;;;;;-6.23;79.52;97376.56;1741142;81;21040;-57
2021/12/28 03:45:48;;;;;;;185.95;73.62;;;;;;;-6.31;79.24;97376.19;1740420;82;21056;-57
2021/12/28 03:48:15;;;;;;;300.85;106.03;;;;;;;-6.34;79.13;97375.73;1737809;82;21273;-58
2021/12/28 03:50:42;;;;;;;253.58;93.67;;;;;;;-6.43;79.78;97372.41;1732307;82;20975;-58
2021/12/28 03:53:09;;;;;;;192.65;77.67;;;;;;;-6.40;80.39;97376.51;1741526;81;20989;-58
2021/12/28 03:55:36;;;;;;;210.78;83.12;;;;;;;-6.42;80.40;97377.17;1740987;81;21457;-58
2021/12/28 03:58:04;;;;;;;227.07;84.20;;;;;;;-6.45;80.13;97383.65;1735715;81;21039;-57
2021/12/28 04:00:37;;;;;;;193.43;74.03;;;;;;;-6.45;80.24;97392.06;1734558;82;21452;-57
2021/12/28 04:03:04;;;;;;;168.15;65.35;;;;;;;-6.46;79.85;97383.34;1734617;82;21472;-58
2021/12/28 04:05:31;;;;;;;306.30;122.00;;;;;;;-6.59;79.90;97375.28;1734552;82;21000;-58
2021/12/28 04:07:58;;;;;;;184.07;72.65;;;;;;;-6.59;80.24;97375.28;1737799;82;20971;-58
2021/12/28 04:10:31;;;;;;;167.65;69.42;;;;;;;-6.67;79.40;97377.53;1740898;81;21007;-57
2021/12/28 04:12:57;;;;;;;162.88;66.70;;;;;;;-6.73;79.89;97378.80;1740957;81;21417;-57
2021/12/28 04:15:24;;;;;;;152.22;60.33;;;;;;;-6.74;80.01;97377.98;1741044;82;20957;-57
2021/12/28 04:17:51;;;;;;;152.25;59.88;;;;;;;-6.75;79.84;97369.77;1741264;81;20996;-57
2021/12/28 04:20:19;;;;;;;151.10;58.95;;;;;;;-6.71;80.43;97368.38;1741304;82;21051;-57
2021/12/28 04:22:46;;;;;;;127.65;59.08;;;;;;;-6.64;81.05;97374.53;1741260;81;21048;-57
2021/12/28 04:25:14;;;;;;;172.70;67.50;;;;;;;-6.66;80.36;97374.42;1741006;82;21053;-57
2021/12/28 04:27:42;;;;;;;153.40;64.15;;;;;;;-6.71;81.92;97376.78;1741288;81;21032;-57
2021/12/28 04:30:11;;;;;;;200.00;78.07;;;;;;;-6.70;81.94;97377.91;1740990;82;21004;-57
2021/12/28 04:32:38;;;;;;;197.55;78.37;;;;;;;-6.74;80.22;97379.80;1740540;81;21045;-57
2021/12/28 04:35:06;;;;;;;297.35;112.80;;;;;;;-6.80;80.22;97383.17;1740862;82;20968;-57
2021/12/28 04:37:33;;;;;;;169.70;67.67;;;;;;;-6.96;81.46;97385.52;1741393;81;22261;-57
2021/12/28 04:40:00;;;;;;;142.37;59.93;;;;;;;-6.95;81.39;97376.61;1740973;82;21047;-57
2021/12/28 04:42:29;;;;;;;138.10;58.38;;;;;;;-7.00;80.63;97378.49;1741204;81;20953;-57
2021/12/28 04:44:56;;;;;;;148.30;56.42;;;;;;;-7.10;80.77;97374.80;1740943;82;21993;-57
2021/12/28 04:47:23;;;;;;;139.62;56.95;;;;;;;-7.13;80.76;97384.40;1739752;81;21047;-57
2021/12/28 04:49:50;;;;;;;118.53;52.95;;;;;;;-7.11;80.32;97380.26;1725588;82;21234;-57
2021/12/28 04:52:16;;;;;;;134.50;56.02;;;;;;;-7.14;80.11;97381.95;1741252;81;20983;-57
2021/12/28 04:54:44;;;;;;;129.95;54.73;;;;;;;-7.08;80.45;97376.47;1741072;82;21228;-57
2021/12/28 04:57:11;;;;;;;142.75;55.28;;;;;;;-7.06;80.18;97378.41;1741276;81;20996;-57
2021/12/28 04:59:38;;;;;;;144.13;58.78;;;;;;;-7.10;80.04;97370.03;1741084;82;21428;-57
2021/12/28 05:02:05;;;;;;;153.65;65.80;;;;;;;-7.14;80.02;97371.42;1737221;82;21410;-57
2021/12/28 05:04:32;;;;;;;179.70;77.75;;;;;;;-7.19;79.76;97374.59;1734678;82;21008;-57
2021/12/28 05:06:58;;;;;;;175.20;79.47;;;;;;;-7.17;80.86;97375.25;1734549;82;20991;-57
2021/12/28 05:09:25;;;;;;;175.03;72.82;;;;;;;-7.16;80.60;97375.56;1734789;82;22097;-57
2021/12/28 05:11:52;;;;;;;155.63;64.70;;;;;;;-7.10;80.82;97373.98;1734861;82;22239;-57
2021/12/28 05:14:20;;;;;;;127.42;55.38;;;;;;;-7.15;80.46;97375.88;1734666;81;21480;-57
2021/12/28 05:16:47;;;;;;;148.53;64.27;;;;;;;-7.22;79.97;97374.97;1740128;81;21409;-57
2021/12/28 05:19:15;;;;;;;155.78;67.67;;;;;;;-7.26;80.79;97386.03;1741112;81;21488;-57
2021/12/28 05:21:42;;;;;;;152.02;62.62;;;;;;;-7.26;80.58;97384.72;1741152;81;20988;-58
2021/12/28 05:24:09;;;;;;;161.52;61.05;;;;;;;-7.37;80.40;97386.00;1741162;81;20992;-57
2021/12/28 05:26:35;;;;;;;154.55;63.02;;;;;;;-7.43;80.88;97386.24;1741329;81;21308;-57
2021/12/28 05:29:03;;;;;;;161.95;66.47;;;;;;;-7.46;80.73;97380.01;1741055;81;21058;-57
2021/12/28 05:31:30;;;;;;;151.20;61.92;;;;;;;-7.46;81.07;97385.77;1741332;81;21291;-57
2021/12/28 05:33:58;;;;;;;177.05;69.80;;;;;;;-7.47;80.71;97390.22;1741328;81;20988;-57
2021/12/28 05:36:25;;;;;;;155.97;63.98;;;;;;;-7.54;80.65;97390.62;1738715;82;21016;-57
2021/12/28 05:38:52;;;;;;;150.03;63.70;;;;;;;-7.56;80.72;97396.57;1734192;80;21428;-57
2021/12/28 05:41:19;;;;;;;144.25;62.53;;;;;;;-7.56;80.39;97397.07;1701747;82;21016;-57
2021/12/28 05:43:46;;;;;;;163.37;66.90;;;;;;;-7.59;80.75;97394.81;1715128;82;21076;-57
2021/12/28 05:46:12;;;;;;;166.32;65.55;;;;;;;-7.55;81.33;97386.36;1720482;81;21024;-57
2021/12/28 05:48:39;;;;;;;166.07;70.03;;;;;;;-7.55;80.92;97382.41;1721373;82;21027;-57
2021/12/28 05:51:06;;;;;;;176.25;72.27;;;;;;;-7.57;80.55;97377.02;1716055;82;22080;-57
2021/12/28 05:53:33;;;;;;;180.52;74.65;;;;;;;-7.57;80.34;97377.02;1714020;83;21434;-57
2021/12/28 05:56:00;;;;;;;159.05;68.30;;;;;;;-7.59;80.02;97383.78;1712437;83;21017;-57
2021/12/28 05:58:27;;;;;;;168.25;72.30;;;;;;;-7.62;80.05;97388.58;1711381;82;21064;-56
2021/12/28 06:00:54;;;;;;;177.43;77.32;;;;;;;-7.64;80.14;97384.00;1713824;83;21020;-56
2021/12/28 06:03:21;;;;;;;173.60;72.30;;;;;;;-7.62;80.32;97380.68;1717388;83;21657;-57
2021/12/28 06:05:47;;;;;;;175.72;76.67;;;;;;;-7.64;80.25;97385.31;1716831;82;21513;-57
2021/12/28 06:08:14;;;;;;;161.45;69.03;;;;;;;-7.69;80.05;97383.20;1716584;82;20984;-56
2021/12/28 06:10:41;;;;;;;214.17;87.65;;;;;;;-7.74;80.46;97380.31;1716854;82;21003;-59
2021/12/28 06:13:08;;;;;;;174.23;74.92;;;;;;;-7.77;80.69;97381.50;1715130;82;21508;-59
2021/12/28 06:15:35;;;;;;;157.65;67.80;;;;;;;-7.78;80.60;97375.89;1717117;82;21294;-59
2021/12/28 06:18:02;;;;;;;158.60;71.45;;;;;;;-7.77;80.26;97369.66;1716384;82;21004;-59
2021/12/28 06:20:29;;;;;;;179.10;76.10;;;;;;;-7.78;80.08;97376.39;1715462;83;21456;-59
2021/12/28 06:22:55;;;;;;;158.85;64.82;;;;;;;-7.69;80.45;97375.31;1764971;80;21025;-59
2021/12/28 06:25:22;;;;;;;179.42;68.92;;;;;;;-7.65;80.30;97373.16;1776923;80;21024;-59
2021/12/28 06:27:49;;;;;;;178.82;73.65;;;;;;;-7.73;80.36;97373.55;1762524;80;21325;-59
2021/12/28 06:30:17;;;;;;;209.03;83.65;;;;;;;-7.80;80.09;97370.50;1776848;80;21002;-57
2021/12/28 06:32:43;;;;;;;243.63;99.37;;;;;;;-7.78;80.24;97377.70;1752332;80;21609;-57
2021/12/28 06:35:11;;;;;;;260.73;104.07;;;;;;;-7.83;80.21;97382.20;1744611;82;21016;-57
2021/12/28 06:37:37;;;;;;;236.18;89.07;;;;;;;-7.77;80.62;97380.69;1756609;80;20984;-57
2021/12/28 06:40:06;;;;;;;212.02;81.17;;;;;;;-7.76;80.20;97376.55;1746784;81;22071;-57
2021/12/28 06:42:33;;;;;;;262.45;87.78;;;;;;;-7.77;80.15;97376.74;1750778;81;21448;-57
2021/12/28 06:44:59;;;;;;;170.22;69.62;;;;;;;-7.86;79.79;97367.27;1735460;82;21052;-57
2021/12/28 06:47:26;;;;;;;189.95;76.70;;;;;;;-7.88;79.78;97378.47;1732803;82;21044;-57
2021/12/28 06:49:53;;;;;;;207.85;82.82;;;;;;;-7.97;80.40;97374.60;1713466;82;21064;-57
2021/12/28 06:52:20;;;;;;;264.30;99.72;;;;;;;-7.93;80.41;97379.02;1735108;82;21950;-57
2021/12/28 06:54:47;;;;;;;186.57;79.20;;;;;;;-7.86;80.79;97381.73;1735391;82;22160;-56
2021/12/28 06:57:14;;;;;;;268.65;105.55;;;;;;;-7.81;80.50;97378.08;1735225;82;21452;-57
2021/12/28 06:59:43;;;;;;;397.67;160.40;;;;;;;-7.84;80.48;97374.50;1721114;82;21065;-57
2021/12/28 07:02:11;;;;;;;368.93;148.87;;;;;;;-7.88;80.04;97376.66;1739204;82;21057;-57
2021/12/28 07:04:38;;;;;;;219.50;92.45;;;;;;;-7.90;80.35;97376.02;1745681;80;21952;-57
2021/12/28 07:07:05;;;;;;;231.50;97.92;;;;;;;-7.86;80.31;97377.78;1746431;80;21527;-57
2021/12/28 07:09:33;;;;;;;184.93;78.07;;;;;;;-7.82;80.21;97379.08;1754379;81;20997;-57
2021/12/28 07:12:00;;;;;;;206.65;85.20;;;;;;;-7.72;80.40;97380.95;1753623;80;21069;-57
2021/12/28 07:14:28;;;;;;;265.62;107.35;;;;;;;-7.75;79.97;97387.89;1738158;81;21048;-57
2021/12/28 07:16:57;;;;;;;363.25;141.18;;;;;;;-7.76;80.25;97394.97;1761639;80;21266;-57
2021/12/28 07:19:24;;;;;;;;;;;;;;;-7.71;79.97;97398.36;1760840;80;21083;-57
2021/12/28 07:21:51;;;;;;;196.68;78.97;;;;;;;-7.68;80.25;97398.02;1703516;82;20167;-57
2021/12/28 07:24:19;;;;;;;230.85;97.10;;;;;;;-7.63;79.95;97401.41;1768393;80;21090;-57
2021/12/28 07:26:46;;;;;;;231.45;101.87;;;;;;;-7.61;80.16;97407.30;1759304;80;21430;-57
2021/12/28 07:29:13;;;;;;;211.90;92.67;;;;;;;-7.50;80.42;97402.44;1769045;80;21020;-57
2021/12/28 07:31:40;;;;;;;221.22;98.35;;;;;;;-7.41;80.12;97404.48;1754762;80;21055;-57
2021/12/28 07:34:07;;;;;;;236.35;98.30;;;;;;;-7.29;80.15;97405.66;1753936;80;21055;-57
2021/12/28 07:36:33;;;;;;;241.27;100.55;;;;;;;-7.26;79.71;97399.19;1752738;79;21092;-57
2021/12/28 07:39:00;;;;;;;223.50;99.15;;;;;;;-7.23;79.56;97401.48;1741758;80;21078;-57
2021/12/28 07:41:27;;;;;;;241.27;110.57;;;;;;;-7.20;79.67;97401.11;1728909;80;21550;-56
2021/12/28 07:43:54;;;;;;;262.57;112.15;;;;;;;-7.22;79.39;97401.30;1741785;80;21389;-57
2021/12/28 07:46:21;;;;;;;242.47;102.82;;;;;;;-7.12;79.74;97411.05;1751453;80;21042;-57
2021/12/28 07:48:49;;;;;;;275.82;118.33;;;;;;;-7.04;79.58;97402.73;1754521;79;21000;-58
2021/12/28 07:51:16;;;;;;;266.70;113.95;;;;;;;-6.99;79.51;97409.09;1734925;80;21031;-57
2021/12/28 07:53:43;;;;;;;364.88;169.72;;;;;;;-7.00;79.06;97405.33;1743234;80;21511;-57
2021/12/28 07:56:10;;;;;;;335.17;145.40;;;;;;;-6.93;79.33;97406.20;1754228;80;21030;-57
2021/12/28 07:58:37;;;;;;;278.55;125.92;;;;;;;-6.93;79.35;97406.20;1756536;80;21159;-57
2021/12/28 08:01:04;;;;;;;244.55;107.27;;;;;;;-6.88;79.37;97402.53;1754424;80;21053;-57
2021/12/28 08:03:30;;;;;;;266.35;114.37;;;;;;;-6.75;79.44;97397.91;1735923;80;21165;-56
2021/12/28 08:05:57;;;;;;;371.87;155.78;;;;;;;-6.85;79.02;97392.43;1737179;82;21685;-57
2021/12/28 08:08:24;;;;;;;363.18;168.65;;;;;;;-6.79;78.99;97405.88;1745418;80;21618;-57
2021/12/28 08:10:51;;;;;;;500.02;250.80;;;;;;;-6.85;78.99;97397.70;1734048;81;20990;-56
2021/12/28 08:13:18;;;;;;;370.77;153.90;;;;;;;-6.74;79.20;97402.20;1728472;81;21075;-56
2021/12/28 08:15:45;;;;;;;433.98;180.37;;;;;;;-6.69;79.04;97400.63;1721966;81;21099;-56
2021/12/28 08:18:12;;;;;;;619.60;281.23;;;;;;;-6.56;79.42;97396.02;1721410;82;21009;-57
2021/12/28 08:20:39;;;;;;;978.65;433.50;;;;;;;-6.43;79.38;97394.00;1732851;82;20986;-56
2021/12/28 08:23:06;;;;;;;811.77;356.25;;;;;;;-6.41;78.45;97391.52;1737343;82;21016;-57
2021/12/28 08:25:33;;;;;;;959.60;400.80;;;;;;;-6.34;78.73;97381.82;1743691;79;21511;-57
2021/12/28 08:28:04;;;;;;;1947.05;690.47;;;;;;;-6.31;78.59;97380.15;1739732;81;21596;-57
2021/12/28 08:30:29;;;;;;;1269.83;507.47;;;;;;;-6.24;78.67;97377.55;1742810;80;21330;-56
2021/12/28 08:32:56;;;;;;;742.33;338.80;;;;;;;-6.14;78.77;97366.70;1745864;80;20993;-57
2021/12/28 08:35:23;;;;;;;378.65;176.18;;;;;;;-5.94;79.08;97370.31;1743001;80;21462;-57
2021/12/28 08:37:50;;;;;;;352.57;154.10;;;;;;;-5.90;78.59;97368.88;1760097;79;21408;-57
2021/12/28 08:40:17;;;;;;;373.38;149.42;;;;;;;-5.81;78.92;97373.03;1747648;80;20995;-57
2021/12/28 08:42:44;;;;;;;341.48;146.82;;;;;;;-5.64;79.21;97372.21;1739344;80;21486;-57
2021/12/28 08:45:11;;;;;;;316.73;137.82;;;;;;;-5.49;79.13;97368.97;1718394;82;21013;-57
2021/12/28 08:47:38;;;;;;;324.02;143.75;;;;;;;-5.48;78.22;97373.23;1716595;81;21095;-57
2021/12/28 08:50:07;;;;;;;284.73;128.35;;;;;;;-5.45;78.46;97373.38;1719997;81;21064;-57
2021/12/28 08:52:34;;;;;;;292.95;129.40;;;;;;;-5.41;78.47;97376.73;1716136;82;21139;-56
2021/12/28 08:55:01;;;;;;;314.80;139.00;;;;;;;-5.40;78.31;97370.95;1713752;82;21068;-56
2021/12/28 08:57:28;;;;;;;311.15;136.95;;;;;;;-5.37;78.54;97375.86;1711521;83;21047;-57
2021/12/28 08:59:55;;;;;;;304.05;130.37;;;;;;;-5.29;78.48;97366.46;1713004;82;21438;-57
2021/12/28 09:02:21;;;;;;;316.30;142.43;;;;;;;-5.21;78.67;97361.52;1715507;81;21773;-56
2021/12/28 09:04:48;;;;;;;301.80;139.15;;;;;;;-5.05;78.86;97359.84;1713964;82;21083;-57
2021/12/28 09:07:17;;;;;;;294.70;136.07;;;;;;;-4.95;78.77;97359.00;1713519;81;21047;-57
2021/12/28 09:09:44;;;;;;;296.95;138.43;;;;;;;-4.78;79.00;97357.33;1714103;83;21019;-57
2021/12/28 09:12:11;;;;;;;294.93;134.27;;;;;;;-4.90;76.33;97360.52;1714767;82;21027;-57
2021/12/28 09:14:39;;;;;;;259.48;115.00;;;;;;;-4.89;76.70;97356.86;1711169;82;20992;-57
2021/12/28 09:17:06;;;;;;;274.05;121.20;;;;;;;-4.84;77.25;97358.42;1712327;82;21035;-57
2021/12/28 09:19:33;;;;;;;281.30;123.75;;;;;;;-4.88;77.49;97353.71;1713801;82;21018;-57
2021/12/28 09:22:00;;;;;;;244.05;111.22;;;;;;;-4.77;77.99;97352.34;1713498;81;21391;-57
2021/12/28 09:24:27;;;;;;;238.85;111.40;;;;;;;-4.59;78.27;97352.09;1710211;81;21035;-56
2021/12/28 09:26:54;;;;;;;241.15;108.67;;;;;;;-4.49;77.68;97346.92;1712387;82;21044;-57
2021/12/28 09:29:21;;;;;;;259.75;116.10;;;;;;;-4.35;78.04;97340.14;1712024;82;21071;-57
2021/12/28 09:31:48;;;;;;;232.57;104.00;;;;;;;-4.30;77.43;97325.78;1745146;80;21047;-57
2021/12/28 09:34:16;;;;;;;241.57;110.42;;;;;;;-4.22;77.03;97320.80;1717807;81;21415;-58
2021/12/28 09:36:44;;;;;;;229.10;101.38;;;;;;;-4.10;77.47;97314.38;1736162;81;21017;-58
2021/12/28 09:39:11;;;;;;;238.37;104.43;;;;;;;-3.98;77.16;97315.41;1747816;81;22400;-57
2021/12/28 09:41:38;;;;;;;230.70;105.75;;;;;;;-4.00;75.48;97305.04;1744458;80;21013;-56
2021/12/28 09:44:05;;;;;;;259.85;119.37;;;;;;;-3.85;76.99;97311.93;1744004;80;21016;-57
2021/12/28 09:46:32;;;;;;;270.12;122.22;;;;;;;-3.73;77.02;97311.63;1740393;80;21143;-58
2021/12/28 09:48:59;;;;;;;256.68;116.62;;;;;;;-3.64;77.14;97310.89;1741906;80;21503;-57
2021/12/28 09:51:25;;;;;;;247.98;113.95;;;;;;;-3.57;77.02;97303.76;1732786;80;21296;-57
2021/12/28 09:53:52;;;;;;;245.27;108.63;;;;;;;-3.47;77.12;97301.48;1756707;80;21075;-58
2021/12/28 09:56:19;;;;;;;240.75;112.83;;;;;;;-3.38;77.02;97306.05;1746621;79;21074;-57
2021/12/28 09:58:46;;;;;;;228.10;106.95;;;;;;;-3.35;76.72;97292.38;1724324;80;20949;-57
2021/12/28 10:01:13;;;;;;;234.05;106.65;;;;;;;-3.30;75.38;97301.33;1741703;80;21079;-57
2021/12/28 10:03:40;;;;;;;240.68;107.67;;;;;;;-3.17;76.62;97299.94;1712054;82;21449;-57
2021/12/28 10:06:18;;;;;;;236.62;109.70;;;;;;;-3.06;76.62;97288.41;1721587;80;21137;-57
2021/12/28 10:08:45;;;;;;;234.75;106.32;;;;;;;-3.04;75.22;97279.21;1723424;82;21730;-57
2021/12/28 10:11:13;;;;;;;250.15;107.87;;;;;;;-3.04;75.22;97279.21;1731929;82;21068;-58
2021/12/28 10:13:39;;;;;;;227.10;106.92;;;;;;;-2.85;76.06;97285.44;1736756;80;20978;-57
2021/12/28 10:16:06;;;;;;;216.53;102.40;;;;;;;-2.68;76.31;97287.08;1747330;81;21075;-57
2021/12/28 10:18:33;;;;;;;221.72;98.47;;;;;;;-2.60;75.74;97282.33;1733431;81;21521;-56
2021/12/28 10:21:01;;;;;;;221.47;101.50;;;;;;;-2.51;76.01;97271.45;1732720;82;21769;-56
2021/12/28 10:23:30;;;;;;;253.73;111.93;;;;;;;-2.40;75.59;97265.45;1741659;80;21445;-58
2021/12/28 10:26:00;;;;;;;309.00;127.70;;;;;;;-2.30;75.48;97265.30;1745320;80;21023;-57
2021/12/28 10:28:36;;;;;;;288.18;130.25;;;;;;;-2.31;74.05;97266.81;1740221;80;20992;-57
2021/12/28 10:31:08;;;;;;;305.70;130.87;;;;;;;-2.32;72.38;97260.69;1748076;80;21135;-57
2021/12/28 10:33:37;;;;;;;307.30;135.20;;;;;;;-2.33;73.07;97252.44;1721245;81;22268;-57
2021/12/28 10:36:07;;;;;;;;;;;;;;;-2.20;74.61;97255.52;1741174;80;21534;-57
2021/12/28 10:38:38;;;;;;;307.27;131.70;;;;;;;-2.10;74.93;97246.54;1742394;80;20305;-57
2021/12/28 10:41:14;;;;;;;285.55;128.90;;;;;;;-2.10;73.28;97245.21;1743549;80;21039;-57
2021/12/28 10:43:45;;;;;;;259.02;114.50;;;;;;;-1.99;74.68;97242.34;1745850;80;21080;-57
2021/12/28 10:46:24;;;;;;;251.47;107.67;;;;;;;-1.95;74.11;97239.57;1741522;80;21569;-57
2021/12/28 10:48:57;;;;;;;243.65;108.37;;;;;;;-1.87;74.97;97226.02;1750163;80;21021;-57
2021/12/28 10:51:35;;;;;;;205.87;94.83;;;;;;;-1.75;74.81;97224.75;1743355;80;20993;-57
2021/12/28 10:54:12;;;;;;;189.90;86.10;;;;;;;-1.63;75.42;97218.18;1740772;82;21120;-57
2021/12/28 10:56:54;;;;;;;202.25;90.83;;;;;;;-1.54;75.15;97211.05;1739691;80;21083;-57
2021/12/28 10:59:31;;;;;;;212.50;90.67;;;;;;;-1.46;75.16;97212.56;1746903;80;21020;-58
2021/12/28 11:01:57;;;;;;;195.50;89.92;;;;;;;-1.46;72.94;97205.41;1746048;80;22248;-56
2021/12/28 11:04:34;;;;;;;212.97;93.87;;;;;;;-1.54;72.67;97201.75;1740646;81;21252;-57
2021/12/28 11:07:04;;;;;;;193.07;85.77;;;;;;;-1.44;74.12;97198.05;1742965;80;21453;-57
2021/12/28 11:09:31;;;;;;;186.82;86.17;;;;;;;-1.38;74.05;97187.02;1765385;79;21065;-57
2021/12/28 11:11:58;;;;;;;163.05;72.10;;;;;;;-1.41;72.42;97171.53;1760008;80;21458;-56